Time;durP1;ratioP1;P1;durP2;ratioP2;P2;SDS_P1;SDS_P2;PMS_P1;PMS_P2;Temp;Humidity;BMP_temperature;BMP_pressure;BME280_temperature;BME280_humidity;BME280_pressure;Samples;Min_cycle;Max_cycle;Signal;HPM_P1;HPM_P2
2022/07/06 00:01:15;;;;;;;1.60;1.40;;;16.60;99.90;;;;;;5012906;28;20165;-80
2022/07/06 00:03:41;;;;;;;4.95;1.40;;;16.70;99.90;;;;;;5014074;28;20627;-81
2022/07/06 00:06:07;;;;;;;2.45;2.00;;;16.80;99.90;;;;;;5013167;28;20183;-82
2022/07/06 00:08:33;;;;;;;4.65;2.15;;;16.70;99.90;;;;;;5014170;28;20554;-82
2022/07/06 00:10:59;;;;;;;3.53;2.22;;;16.50;99.90;;;;;;5014043;28;20610;-80
2022/07/06 00:13:25;;;;;;;6.40;2.05;;;16.50;99.90;;;;;;5014044;28;20187;-81
2022/07/06 00:15:50;;;;;;;3.47;1.67;;;16.50;99.90;;;;;;5013743;28;20556;-89
2022/07/06 00:18:16;;;;;;;2.70;1.73;;;16.40;99.90;;;;;;5013964;28;20707;-80
2022/07/06 00:20:42;;;;;;;7.03;1.90;;;16.30;99.90;;;;;;5028869;28;20196;-80
2022/07/06 00:23:07;;;;;;;5.30;1.75;;;16.40;99.90;;;;;;5013795;28;20656;-79
2022/07/06 00:25:33;;;;;;;2.33;1.80;;;16.40;99.90;;;;;;5012758;28;20658;-80
2022/07/06 00:27:59;;;;;;;3.60;1.83;;;16.30;99.90;;;;;;5013825;28;20243;-89
2022/07/06 00:30:24;;;;;;;4.57;1.85;;;16.20;99.90;;;;;;5013749;28;20216;-88
2022/07/06 00:32:50;;;;;;;7.10;2.10;;;16.10;99.90;;;;;;5012569;28;20506;-87
2022/07/06 00:35:16;;;;;;;4.10;2.35;;;16.00;99.90;;;;;;5013822;28;20168;-80
2022/07/06 00:37:41;;;;;;;6.10;2.30;;;16.00;99.90;;;;;;5013511;28;20323;-82
2022/07/06 00:40:07;;;;;;;6.40;2.10;;;15.90;99.90;;;;;;5012511;28;20192;-79
2022/07/06 00:42:41;;;;;;;5.72;2.00;;;15.90;99.90;;;;;;5012220;28;20259;-81
2022/07/06 00:45:07;;;;;;;2.67;2.15;;;16.00;99.90;;;;;;5013475;28;20252;-80
2022/07/06 00:47:32;;;;;;;3.80;1.60;;;16.00;99.90;;;;;;5013346;28;20204;-80
2022/07/06 00:52:56;;;;;;;3.75;2.05;;;16.00;99.90;;;;;;5013741;28;20183;-89
2022/07/06 00:55:25;;;;;;;2.83;1.52;;;15.90;99.90;;;;;;5012273;28;20176;-80
2022/07/06 00:57:52;;;;;;;2.15;1.83;;;15.80;99.90;;;;;;5012181;28;20227;-80
2022/07/06 01:00:20;;;;;;;3.38;2.38;;;15.70;99.90;;;;;;5013095;28;20572;-80
2022/07/06 01:02:46;;;;;;;2.53;1.63;;;15.70;99.90;;;;;;5013103;28;20507;-80
2022/07/06 01:05:14;;;;;;;2.47;1.75;;;15.80;99.90;;;;;;5013384;28;20165;-80
2022/07/06 01:07:42;;;;;;;9.05;1.70;;;15.90;99.90;;;;;;5011464;28;20168;-80
2022/07/06 01:10:10;;;;;;;4.10;2.05;;;15.80;99.90;;;;;;5013383;28;20188;-80
2022/07/06 01:12:38;;;;;;;3.67;1.75;;;15.70;99.90;;;;;;5012387;28;20165;-81
2022/07/06 01:15:06;;;;;;;3.00;2.30;;;15.60;99.90;;;;;;5015895;28;20633;-80
2022/07/06 01:17:38;;;;;;;4.30;1.85;;;15.50;99.90;;;;;;5014128;28;20177;-80
2022/07/06 01:20:15;;;;;;;6.07;1.88;;;15.40;99.90;;;;;;5014693;28;20635;-85
2022/07/06 01:22:42;;;;;;;3.47;1.75;;;15.50;99.90;;;;;;5012693;28;20243;-80
2022/07/06 01:25:08;;;;;;;4.47;2.22;;;15.40;99.90;;;;;;5011997;28;20647;-80
2022/07/06 01:27:38;;;;;;;5.78;1.98;;;15.40;99.90;;;;;;5011765;28;20634;-86
2022/07/06 01:30:08;;;;;;;7.47;2.50;;;15.30;99.90;;;;;;5012675;28;20238;-80
2022/07/06 01:32:35;;;;;;;9.35;2.30;;;15.30;99.90;;;;;;5012799;28;20169;-80
2022/07/06 01:35:01;;;;;;;4.65;1.77;;;15.40;99.90;;;;;;5011858;28;20259;-81
2022/07/06 01:37:26;;;;;;;6.55;1.90;;;15.60;99.90;;;;;;5012702;28;20238;-81
2022/07/06 01:39:52;;;;;;;5.10;2.13;;;15.70;99.90;;;;;;5012651;28;20708;-91
2022/07/06 01:42:18;;;;;;;8.52;2.25;;;15.30;99.90;;;;;;5028439;28;20172;-82
2022/07/06 01:44:44;;;;;;;3.85;1.77;;;15.20;99.90;;;;;;5012664;28;20215;-80
2022/07/06 01:47:11;;;;;;;8.27;1.95;;;15.10;99.90;;;;;;5011619;28;20179;-81
2022/07/06 01:49:36;;;;;;;2.55;1.92;;;15.00;99.90;;;;;;5011518;28;20196;-81
2022/07/06 01:52:02;;;;;;;3.55;2.05;;;15.00;99.90;;;;;;5012777;28;20196;-81
2022/07/06 01:54:28;;;;;;;2.67;2.38;;;15.00;99.90;;;;;;5012795;28;20184;-80
2022/07/06 01:56:54;;;;;;;3.28;2.38;;;15.00;99.90;;;;;;5011757;28;20176;-81
2022/07/06 01:59:19;;;;;;;3.83;2.00;;;14.90;99.90;;;;;;5012484;28;20192;-80
2022/07/06 02:01:45;;;;;;;9.10;2.72;;;14.90;99.90;;;;;;5012460;28;20179;-80
2022/07/06 02:04:10;;;;;;;5.88;2.72;;;14.90;99.90;;;;;;5012459;28;20204;-80
2022/07/06 02:06:36;;;;;;;10.23;2.50;;;14.90;99.90;;;;;;5012753;28;20591;-81
2022/07/06 02:09:02;;;;;;;7.75;2.05;;;14.90;99.90;;;;;;5027802;28;20201;-91
2022/07/06 02:11:28;;;;;;;3.00;2.42;;;14.90;99.90;;;;;;5012210;28;20172;-82
2022/07/06 02:13:53;;;;;;;7.45;2.42;;;14.80;99.90;;;;;;5012377;28;20219;-81
2022/07/06 02:16:19;;;;;;;2.40;2.20;;;15.00;99.90;;;;;;5012805;28;20590;-80
2022/07/06 02:18:44;;;;;;;5.85;1.90;;;15.10;99.90;;;;;;5013420;28;20200;-80
2022/07/06 02:21:10;;;;;;;2.28;1.90;;;14.90;99.90;;;;;;5016342;28;20164;-81
2022/07/06 02:23:36;;;;;;;4.93;2.75;;;14.80;99.90;;;;;;5016022;28;20592;-80
2022/07/06 02:26:01;;;;;;;4.57;2.28;;;14.80;99.90;;;;;;5016015;28;20621;-80
2022/07/06 02:28:28;;;;;;;9.20;2.05;;;14.80;99.90;;;;;;5014524;28;20246;-80
2022/07/06 02:30:54;;;;;;;5.60;3.10;;;14.50;99.90;;;;;;5015900;28;20196;-80
2022/07/06 02:33:19;;;;;;;10.10;2.55;;;14.50;99.90;;;;;;5014828;28;20169;-80
2022/07/06 02:35:45;;;;;;;8.85;2.40;;;14.60;99.90;;;;;;5014862;28;20168;-89
2022/07/06 02:38:10;;;;;;;5.28;2.35;;;14.60;99.90;;;;;;5015757;28;20168;-90
2022/07/06 02:40:38;;;;;;;3.75;2.15;;;14.70;99.90;;;;;;5016212;28;20173;-90
2022/07/06 02:43:04;;;;;;;2.55;2.35;;;14.60;99.90;;;;;;5015507;28;20272;-80
2022/07/06 02:45:30;;;;;;;4.57;2.33;;;14.40;99.90;;;;;;5015724;28;20259;-80
2022/07/06 02:47:57;;;;;;;2.45;2.25;;;14.40;99.90;;;;;;5015970;28;20239;-81
2022/07/06 02:50:23;;;;;;;4.72;2.55;;;14.40;99.90;;;;;;5015536;28;20196;-80
2022/07/06 02:52:49;;;;;;;3.42;2.25;;;14.50;99.90;;;;;;5015589;28;20169;-82
2022/07/06 02:55:15;;;;;;;5.55;2.47;;;14.60;99.90;;;;;;5015849;28;20255;-80
2022/07/06 02:57:40;;;;;;;2.92;2.63;;;14.60;99.90;;;;;;5015580;28;20621;-89
2022/07/06 03:00:08;;;;;;;3.22;2.58;;;14.30;99.90;;;;;;5015666;28;20188;-80
2022/07/06 03:02:33;;;;;;;5.53;2.58;;;14.40;99.90;;;;;;5014162;28;20196;-91
2022/07/06 03:04:59;;;;;;;6.28;3.38;;;14.50;99.90;;;;;;5030606;28;20219;-80
2022/07/06 03:07:25;;;;;;;3.25;2.22;;;14.60;99.90;;;;;;5015380;28;20172;-82
2022/07/06 03:09:50;;;;;;;3.67;2.47;;;14.50;99.90;;;;;;5014995;28;20279;-82
2022/07/06 03:12:16;;;;;;;3.10;2.80;;;14.50;99.90;;;;;;5015392;28;20173;-82
2022/07/06 03:14:42;;;;;;;3.47;3.08;;;14.40;99.90;;;;;;5013697;28;20184;-81
2022/07/06 03:17:08;;;;;;;6.85;2.78;;;14.40;99.90;;;;;;5014092;28;20190;-81
2022/07/06 03:19:34;;;;;;;4.93;2.70;;;14.20;99.90;;;;;;5015024;28;20185;-90
2022/07/06 03:21:59;;;;;;;3.47;2.53;;;14.20;99.90;;;;;;5013429;28;20173;-81
2022/07/06 03:24:25;;;;;;;6.72;3.60;;;14.30;99.90;;;;;;5030434;28;20214;-81
2022/07/06 03:26:51;;;;;;;4.07;3.38;;;14.30;99.90;;;;;;5015183;28;20252;-81
2022/07/06 03:29:17;;;;;;;12.65;3.33;;;14.60;99.90;;;;;;5013773;28;20200;-81
2022/07/06 03:31:42;;;;;;;11.95;3.05;;;14.60;99.90;;;;;;5014766;28;20164;-81
2022/07/06 03:34:08;;;;;;;5.05;2.72;;;14.40;99.90;;;;;;5013480;28;20176;-82
2022/07/06 03:36:33;;;;;;;4.97;3.40;;;14.20;99.90;;;;;;5015208;28;20230;-81
2022/07/06 03:38:59;;;;;;;3.92;2.78;;;14.20;99.90;;;;;;5014779;28;20676;-81
2022/07/06 03:41:25;;;;;;;10.02;2.92;;;14.30;99.90;;;;;;5014057;28;20181;-81
2022/07/06 03:43:50;;;;;;;9.90;3.28;;;14.40;99.90;;;;;;5014589;28;20592;-81
2022/07/06 03:46:16;;;;;;;7.15;2.88;;;14.50;99.90;;;;;;5014331;28;20203;-81
2022/07/06 03:48:41;;;;;;;6.35;3.17;;;14.50;99.90;;;;;;5014603;28;20200;-81
2022/07/06 03:51:07;;;;;;;12.18;3.42;;;14.50;99.90;;;;;;5013337;28;20172;-81
2022/07/06 03:53:33;;;;;;;5.80;3.60;;;14.50;99.90;;;;;;5029506;28;20626;-80
2022/07/06 03:58:43;;;;;;;6.75;3.28;;;14.70;99.90;;;;;;5014093;28;20271;-90
2022/07/06 04:01:08;;;;;;;9.63;4.13;;;14.70;99.90;;;;;;5014070;28;20271;-90
2022/07/06 04:03:34;;;;;;;6.30;3.30;;;14.70;99.90;;;;;;5012831;28;20200;-80
2022/07/06 04:06:00;;;;;;;5.60;3.53;;;14.80;99.90;;;;;;5013947;28;20196;-80
2022/07/06 04:08:25;;;;;;;5.53;3.53;;;14.80;99.90;;;;;;5013855;28;20180;-79
2022/07/06 04:10:51;;;;;;;6.40;3.15;;;14.70;99.90;;;;;;5014669;28;20184;-81
2022/07/06 04:13:17;;;;;;;8.98;3.22;;;14.60;99.90;;;;;;5015765;28;20171;-80
2022/07/06 04:15:42;;;;;;;5.18;3.13;;;14.80;99.90;;;;;;5016328;28;20719;-80
2022/07/06 04:18:08;;;;;;;7.10;3.00;;;14.90;99.90;;;;;;5015575;28;20173;-80
2022/07/06 04:20:33;;;;;;;10.93;3.70;;;15.10;99.90;;;;;;5014173;28;20251;-80
2022/07/06 04:23:00;;;;;;;4.30;3.58;;;15.10;99.90;;;;;;5013956;28;20177;-81
2022/07/06 04:25:26;;;;;;;5.40;3.50;;;15.10;99.90;;;;;;5013723;28;20272;-83
2022/07/06 04:27:51;;;;;;;10.85;4.00;;;15.00;99.90;;;;;;5013105;28;20279;-80
2022/07/06 04:30:17;;;;;;;5.47;3.42;;;15.10;99.90;;;;;;5012563;28;20736;-90
2022/07/06 04:32:43;;;;;;;13.05;4.53;;;15.30;99.90;;;;;;5013546;28;20684;-80
2022/07/06 04:35:08;;;;;;;8.75;3.75;;;15.30;99.90;;;;;;5013662;28;20226;-80
2022/07/06 04:37:34;;;;;;;6.57;4.05;;;15.40;99.90;;;;;;5013756;28;20659;-81
2022/07/06 04:40:00;;;;;;;8.07;4.85;;;15.20;99.90;;;;;;5013089;28;20241;-80
2022/07/06 04:42:25;;;;;;;10.07;4.38;;;15.20;99.90;;;;;;5013341;28;20176;-80
2022/07/06 04:44:53;;;;;;;8.60;4.18;;;15.40;99.90;;;;;;5013057;28;20201;-82
2022/07/06 04:47:19;;;;;;;14.25;4.60;;;15.50;99.90;;;;;;5012686;28;20264;-81
2022/07/06 04:49:45;;;;;;;5.18;3.80;;;15.70;99.90;;;;;;5013081;28;20266;-80
2022/07/06 04:52:11;;;;;;;5.25;3.42;;;15.70;99.90;;;;;;5013553;28;20167;-80
2022/07/06 04:54:36;;;;;;;8.65;3.95;;;15.90;99.90;;;;;;5013213;28;20169;-80
2022/07/06 04:57:03;;;;;;;9.45;3.63;;;15.70;99.90;;;;;;5013164;28;20161;-80
2022/07/06 04:59:29;;;;;;;4.28;3.42;;;15.90;99.90;;;;;;5013100;28;20546;-81
2022/07/06 05:01:54;;;;;;;11.23;4.95;;;16.00;99.90;;;;;;5013277;28;20161;-80
2022/07/06 05:04:20;;;;;;;5.78;3.72;;;16.10;99.90;;;;;;5013262;28;20212;-80
2022/07/06 05:06:46;;;;;;;5.85;3.63;;;16.30;99.90;;;;;;5011737;28;20565;-81
2022/07/06 05:09:13;;;;;;;17.52;4.43;;;16.30;99.90;;;;;;5012918;28;20194;-80
2022/07/06 05:11:38;;;;;;;9.48;4.40;;;16.30;99.90;;;;;;5011734;28;20215;-81
2022/07/06 05:14:05;;;;;;;12.35;4.38;;;16.30;99.90;;;;;;5012808;28;20184;-81
2022/07/06 05:16:31;;;;;;;8.70;3.50;;;16.30;99.90;;;;;;5013348;28;20179;-81
2022/07/06 05:18:57;;;;;;;8.02;4.20;;;16.20;99.90;;;;;;5011876;28;20192;-81
2022/07/06 05:21:23;;;;;;;11.32;5.85;;;16.10;99.90;;;;;;5012791;28;20160;-80
2022/07/06 05:23:48;;;;;;;10.20;5.78;;;15.90;99.90;;;;;;5012891;28;20208;-81
2022/07/06 05:26:14;;;;;;;7.93;3.92;;;15.80;99.90;;;;;;5012848;28;20204;-81
2022/07/06 05:28:39;;;;;;;15.52;4.47;;;16.00;99.90;;;;;;5011977;28;20599;-83
2022/07/06 05:31:06;;;;;;;7.20;4.53;;;16.10;99.90;;;;;;5013048;28;20195;-80
2022/07/06 05:33:31;;;;;;;11.80;5.15;;;16.40;99.90;;;;;;5011858;28;20172;-87
2022/07/06 05:35:57;;;;;;;18.48;4.53;;;16.60;99.90;;;;;;5013211;28;20172;-89
2022/07/06 05:38:23;;;;;;;13.73;4.45;;;16.60;99.90;;;;;;5027782;28;20192;-80
2022/07/06 05:40:48;;;;;;;6.32;4.63;;;16.70;99.90;;;;;;5013095;28;20176;-82
2022/07/06 05:43:14;;;;;;;12.32;4.30;;;16.90;99.90;;;;;;5012947;28;20196;-82
2022/07/06 05:45:39;;;;;;;15.25;4.68;;;17.00;99.90;;;;;;5028098;28;20183;-82
2022/07/06 05:50:49;;;;;;;11.75;5.15;;;17.20;99.90;;;;;;5013462;28;20218;-81
2022/07/06 05:53:15;;;;;;;10.48;5.20;;;17.50;99.90;;;;;;5013432;28;20210;-82
2022/07/06 05:55:40;;;;;;;9.05;4.30;;;17.50;99.90;;;;;;5015179;28;20169;-83
2022/07/06 05:58:06;;;;;;;15.95;4.70;;;17.60;99.90;;;;;;5016567;28;20585;-88
2022/07/06 06:00:32;;;;;;;7.88;4.18;;;17.70;99.90;;;;;;5016693;28;20281;-81
2022/07/06 06:02:58;;;;;;;12.32;4.60;;;17.80;99.90;;;;;;5015512;28;20171;-81
2022/07/06 06:05:24;;;;;;;10.25;4.40;;;18.00;99.90;;;;;;5014798;28;20176;-81
2022/07/06 06:07:51;;;;;;;9.32;4.70;;;18.00;99.90;;;;;;5015105;28;20179;-81
2022/07/06 06:10:17;;;;;;;19.17;4.47;;;18.00;99.90;;;;;;5016198;28;20184;-82
2022/07/06 06:12:44;;;;;;;26.95;5.63;;;18.10;99.90;;;;;;5016363;28;20164;-81
2022/07/06 06:15:11;;;;;;;11.13;5.43;;;18.30;99.90;;;;;;5016079;28;20653;-80
2022/07/06 06:17:37;;;;;;;20.15;4.85;;;18.40;99.90;;;;;;5014930;28;20570;-81
2022/07/06 06:20:08;;;;;;;19.75;5.13;;;18.60;99.90;;;;;;5015037;28;20243;-81
2022/07/06 06:22:52;;;;;;;10.43;4.65;;;18.80;99.90;;;;;;5031007;28;20173;-83
2022/07/06 06:25:20;;;;;;;22.70;4.82;;;19.40;99.90;;;;;;5016487;28;20184;-81
2022/07/06 06:27:46;;;;;;;14.18;4.60;;;19.50;99.90;;;;;;5015522;28;20176;-93
2022/07/06 06:30:12;;;;;;;7.50;4.55;;;19.40;99.90;;;;;;5015476;28;20188;-78
2022/07/06 06:32:37;;;;;;;10.07;5.18;;;19.40;99.90;;;;;;5015970;28;20169;-80
2022/07/06 06:35:04;;;;;;;13.50;5.78;;;19.40;99.90;;;;;;5015992;28;20183;-80
2022/07/06 06:37:30;;;;;;;6.75;4.38;;;19.70;99.90;;;;;;5015565;28;20533;-80
2022/07/06 06:39:56;;;;;;;22.50;5.20;;;19.50;99.90;;;;;;5015257;28;20188;-78
2022/07/06 06:42:21;;;;;;;12.43;4.18;;;19.50;99.90;;;;;;5015695;28;20567;-83
2022/07/06 06:44:47;;;;;;;8.05;3.40;;;19.60;99.90;;;;;;5015352;28;20669;-80
2022/07/06 06:47:13;;;;;;;9.50;3.38;;;20.00;99.90;;;;;;5015340;28;20172;-78
2022/07/06 06:49:38;;;;;;;3.72;2.83;;;20.20;99.90;;;;;;5015562;28;20184;-79
2022/07/06 06:52:04;;;;;;;6.55;3.78;;;20.40;99.90;;;;;;5015530;28;20535;-81
2022/07/06 06:54:29;;;;;;;6.95;3.42;;;20.50;99.90;;;;;;5015871;28;20173;-85
2022/07/06 06:56:55;;;;;;;4.07;3.40;;;20.70;99.90;;;;;;5015589;28;20217;-81
2022/07/06 06:59:21;;;;;;;15.93;3.08;;;21.10;99.90;;;;;;5015404;28;20195;-80
2022/07/06 07:01:47;;;;;;;6.97;2.08;;;21.20;99.90;;;;;;5015515;28;20181;-82
2022/07/06 07:04:12;;;;;;;9.65;2.00;;;21.20;99.90;;;;;;5015180;28;20212;-81
2022/07/06 07:06:38;;;;;;;7.43;3.00;;;21.30;99.90;;;;;;5015358;28;20165;-80
2022/07/06 07:09:04;;;;;;;2.90;2.17;;;21.40;99.90;;;;;;5014078;28;20250;-89
2022/07/06 07:11:30;;;;;;;5.78;1.70;;;21.50;99.90;;;;;;5014115;28;20176;-87
2022/07/06 07:13:56;;;;;;;6.90;2.00;;;21.60;99.90;;;;;;5015003;28;20172;-81
2022/07/06 07:16:24;;;;;;;7.63;2.08;;;21.80;99.90;;;;;;5015907;28;20175;-82
2022/07/06 07:18:50;;;;;;;19.27;2.58;;;21.90;99.90;;;;;;5015483;28;20220;-81
2022/07/06 07:21:15;;;;;;;29.73;2.90;;;22.20;99.90;;;;;;5016067;28;20176;-85
2022/07/06 07:23:41;;;;;;;9.73;1.60;;;22.50;99.90;;;;;;5014572;28;20535;-85
2022/07/06 07:26:06;;;;;;;6.53;2.13;;;22.30;99.90;;;;;;5014524;28;20184;-95
2022/07/06 07:28:32;;;;;;;8.45;1.65;;;22.40;99.90;;;;;;5014532;28;20184;-88
2022/07/06 07:30:58;;;;;;;12.95;1.83;;;22.40;99.90;;;;;;5014425;28;20621;-86
2022/07/06 07:33:23;;;;;;;3.38;1.83;;;22.70;99.90;;;;;;5014752;28;20178;-82
2022/07/06 07:35:49;;;;;;;3.13;1.38;;;23.40;99.90;;;;;;5014516;28;20262;-84
2022/07/06 07:38:14;;;;;;;9.25;1.80;;;23.90;99.90;;;;;;5015421;28;20160;-84
2022/07/06 07:40:40;;;;;;;6.55;1.50;;;23.80;99.90;;;;;;5015791;28;20597;-83
2022/07/06 07:43:05;;;;;;;8.90;1.58;;;24.10;99.90;;;;;;5014064;28;20160;-85
2022/07/06 07:45:31;;;;;;;4.38;1.60;;;24.50;99.90;;;;;;5015417;28;20199;-84
2022/07/06 07:47:57;;;;;;;14.02;1.77;;;24.70;99.90;;;;;;5015264;28;20250;-87
2022/07/06 07:50:22;;;;;;;5.93;2.05;;;24.70;99.90;;;;;;5021380;28;20235;-84
2022/07/06 07:52:48;;;;;;;7.20;1.10;;;24.70;99.90;;;;;;5033120;28;20149;-84
2022/07/06 07:55:14;;;;;;;4.40;1.40;;;23.90;99.90;;;;;;5025976;28;20218;-83
2022/07/06 07:57:39;;;;;;;10.10;2.08;;;24.10;99.90;;;;;;5014175;28;20164;-85
2022/07/06 08:00:05;;;;;;;3.55;1.00;;;24.10;99.90;;;;;;5013633;28;20234;-84
2022/07/06 08:02:31;;;;;;;4.43;1.45;;;23.70;99.90;;;;;;5013633;28;20183;-86
2022/07/06 08:04:57;;;;;;;4.10;1.33;;;23.40;99.90;;;;;;5014948;28;20287;-85
2022/07/06 08:07:22;;;;;;;5.70;1.83;;;23.20;99.90;;;;;;5013843;28;20177;-86
2022/07/06 08:09:48;;;;;;;5.28;1.10;;;23.10;99.90;;;;;;5009023;28;20231;-85
2022/07/06 08:12:13;;;;;;;2.25;1.40;;;23.10;99.90;;;;;;5028296;28;20172;-84
2022/07/06 08:14:39;;;;;;;8.07;1.75;;;22.60;99.90;;;;;;5030757;28;20180;-86
2022/07/06 08:17:05;;;;;;;8.63;1.95;;;22.70;99.90;;;;;;5029506;28;20608;-84
2022/07/06 08:19:32;;;;;;;1.67;1.15;;;22.70;99.90;;;;;;5029481;28;20195;-84
2022/07/06 08:21:58;;;;;;;4.40;1.60;;;22.50;99.90;;;;;;5012933;28;20169;-84
2022/07/06 08:24:23;;;;;;;10.05;1.70;;;22.50;99.90;;;;;;5028836;28;20557;-85
2022/07/06 08:26:49;;;;;;;6.13;1.45;;;22.70;99.90;;;;;;5029424;28;20179;-86
2022/07/06 08:29:15;;;;;;;4.53;2.08;;;22.70;99.90;;;;;;5028936;28;20687;-83
2022/07/06 08:31:41;;;;;;;4.97;1.45;;;22.50;99.90;;;;;;5029627;28;20169;-85
2022/07/06 08:34:06;;;;;;;6.10;1.23;;;22.50;99.90;;;;;;5013294;28;20695;-85
2022/07/06 08:36:32;;;;;;;3.30;1.52;;;22.50;99.90;;;;;;5037979;28;20687;-87
2022/07/06 08:38:58;;;;;;;6.18;1.95;;;22.60;99.90;;;;;;5023707;28;20216;-85
2022/07/06 08:41:25;;;;;;;2.65;1.50;;;22.60;99.90;;;;;;5024689;28;20173;-86
2022/07/06 08:43:52;;;;;;;12.05;2.53;;;22.70;99.90;;;;;;5030173;28;20200;-87
2022/07/06 08:46:19;;;;;;;27.45;2.55;;;22.70;99.90;;;;;;5034306;28;20164;-84
2022/07/06 08:48:45;;;;;;;8.35;1.63;;;23.00;99.90;;;;;;5037002;28;20223;-85
2022/07/06 08:51:13;;;;;;;10.77;1.80;;;22.50;99.90;;;;;;5032204;28;20176;-85
2022/07/06 08:53:41;;;;;;;2.83;1.45;;;22.40;99.90;;;;;;5034891;28;20176;-86
2022/07/06 08:56:08;;;;;;;3.03;1.70;;;22.20;99.90;;;;;;5034348;28;20196;-83
2022/07/06 08:58:36;;;;;;;10.82;2.40;;;22.30;99.90;;;;;;5052330;28;20199;-84
2022/07/06 09:01:02;;;;;;;4.22;1.80;;;23.00;99.90;;;;;;5033591;28;20224;-84
2022/07/06 09:03:28;;;;;;;8.43;1.98;;;23.20;99.90;;;;;;5042097;28;20223;-84
2022/07/06 09:06:03;;;;;;;5.95;1.90;;;23.10;99.90;;;;;;5031899;28;20633;-85
2022/07/06 09:08:36;;;;;;;1.92;1.50;;;23.30;99.90;;;;;;5027706;28;20200;-85
2022/07/06 09:11:03;;;;;;;3.80;1.70;;;23.30;99.90;;;;;;5005731;28;20506;-81
2022/07/06 09:13:29;;;;;;;2.47;1.75;;;23.50;99.90;;;;;;5012288;28;20168;-82
2022/07/06 09:15:55;;;;;;;2.78;2.05;;;23.30;99.90;;;;;;4990077;28;1098766;-80
2022/07/06 09:18:23;;;;;;;8.40;1.88;;;23.40;99.90;;;;;;5011680;28;20187;-81
2022/07/06 09:20:49;;;;;;;3.47;2.42;;;23.70;99.90;;;;;;5006878;28;20180;-82
2022/07/06 09:23:16;;;;;;;10.60;2.00;;;23.80;99.90;;;;;;5013987;28;20235;-83
2022/07/06 09:25:47;;;;;;;17.02;2.22;;;23.60;99.90;;;;;;5000145;28;20253;-82
2022/07/06 09:28:12;;;;;;;7.45;2.53;;;23.40;99.90;;;;;;5020337;28;20173;-82
2022/07/06 09:30:40;;;;;;;3.90;1.92;;;23.80;99.90;;;;;;5003830;28;20173;-81
2022/07/06 09:33:08;;;;;;;3.28;2.00;;;24.00;99.90;;;;;;5000851;28;20176;-82
2022/07/06 09:35:38;;;;;;;2.75;1.67;;;24.10;99.90;;;;;;5013145;28;20584;-81
2022/07/06 09:38:11;;;;;;;5.40;1.90;;;24.60;99.90;;;;;;5013487;28;20173;-82
2022/07/06 09:40:39;;;;;;;4.95;1.92;;;23.80;99.90;;;;;;5013917;28;20222;-81
2022/07/06 09:43:18;;;;;;;2.88;1.63;;;23.60;99.90;;;;;;5012663;28;20200;-81
2022/07/06 09:45:50;;;;;;;7.10;1.70;;;23.70;99.90;;;;;;5012920;28;20179;-81
2022/07/06 09:48:21;;;;;;;4.22;1.80;;;23.70;99.90;;;;;;5012439;28;20176;-81
2022/07/06 09:50:55;;;;;;;5.68;2.42;;;23.10;99.90;;;;;;5011514;28;20553;-81
2022/07/06 09:53:26;;;;;;;2.72;1.73;;;23.00;99.90;;;;;;5012013;28;20176;-81
2022/07/06 09:55:54;;;;;;;12.55;1.50;;;23.10;99.90;;;;;;5011446;28;20255;-81
2022/07/06 09:58:21;;;;;;;4.15;1.67;;;23.00;99.90;;;;;;5011289;28;20204;-81
2022/07/06 10:00:47;;;;;;;2.75;1.40;;;23.10;99.90;;;;;;5013845;28;20546;-81
2022/07/06 10:03:15;;;;;;;4.22;1.48;;;22.40;99.90;;;;;;5012500;28;20171;-80
2022/07/06 10:05:43;;;;;;;3.17;1.17;;;22.20;99.90;;;;;;5026694;28;20510;-82
2022/07/06 10:08:09;;;;;;;3.33;1.55;;;22.20;99.90;;;;;;5012806;28;20165;-81
2022/07/06 10:10:38;;;;;;;4.75;1.77;;;22.40;99.90;;;;;;5029074;28;20176;-81
2022/07/06 10:13:07;;;;;;;4.60;1.73;;;22.90;99.90;;;;;;5012668;28;20173;-83
2022/07/06 10:15:37;;;;;;;2.13;1.40;;;23.00;99.90;;;;;;5023929;28;20159;-81
2022/07/06 10:18:04;;;;;;;6.57;2.17;;;23.40;99.90;;;;;;5033760;28;20180;-81
2022/07/06 10:20:36;;;;;;;4.35;2.85;;;23.70;99.90;;;;;;5015617;28;20247;-81
2022/07/06 10:23:03;;;;;;;5.60;1.90;;;24.10;99.90;;;;;;5012976;28;20172;-80
2022/07/06 10:25:29;;;;;;;7.93;1.75;;;24.20;99.90;;;;;;5027921;28;20173;-81
2022/07/06 10:27:55;;;;;;;7.63;2.08;;;23.90;99.90;;;;;;5012815;28;20197;-84
2022/07/06 10:30:22;;;;;;;6.45;2.42;;;23.80;99.90;;;;;;5012856;28;20507;-80
2022/07/06 10:32:50;;;;;;;2.60;1.50;;;23.90;99.90;;;;;;5028046;28;20625;-84
2022/07/06 10:35:18;;;;;;;4.78;1.98;;;23.60;99.90;;;;;;5011924;28;20166;-83
2022/07/06 10:37:45;;;;;;;2.55;1.88;;;23.70;99.90;;;;;;5013061;28;20259;-84
2022/07/06 10:43:03;;;;;;;3.53;2.20;;;23.70;99.90;;;;;;5016467;28;20535;-83
2022/07/06 10:45:28;;;;;;;9.00;2.00;;;23.90;99.90;;;;;;5016001;28;20255;-82
2022/07/06 10:48:12;;;;;;;3.30;1.92;;;24.20;99.90;;;;;;5031614;28;20259;-82
2022/07/06 10:50:46;;;;;;;4.22;1.92;;;24.10;99.90;;;;;;5031463;28;20253;-83
2022/07/06 10:53:13;;;;;;;4.30;2.20;;;24.20;99.90;;;;;;5031290;28;20597;-83
2022/07/06 10:55:47;;;;;;;7.05;1.92;;;24.30;99.90;;;;;;5016223;28;20173;-83
2022/07/06 10:58:14;;;;;;;6.68;1.95;;;24.70;99.90;;;;;;5031535;28;20173;-81
2022/07/06 11:00:50;;;;;;;8.98;2.03;;;24.80;99.90;;;;;;5031350;28;20184;-83
2022/07/06 11:03:36;;;;;;;9.60;2.58;;;24.40;99.90;;;;;;5030966;28;20168;-84
2022/07/06 11:06:12;;;;;;;5.80;2.03;;;24.70;99.90;;;;;;5015634;28;20176;-80
2022/07/06 11:08:52;;;;;;;9.40;2.25;;;24.50;99.90;;;;;;5014908;28;20275;-83
2022/07/06 11:11:25;;;;;;;5.30;2.00;;;24.40;99.90;;;;;;5030695;28;20176;-83
2022/07/06 11:14:01;;;;;;;9.82;2.08;;;25.10;99.90;;;;;;5030887;28;20201;-81
2022/07/06 11:16:33;;;;;;;2.88;1.90;;;25.10;99.90;;;;;;5014235;28;20207;-82
2022/07/06 11:19:00;;;;;;;5.28;2.17;;;24.90;99.90;;;;;;5030697;28;20287;-82
2022/07/06 11:22:05;;;;;;;7.57;1.95;;;24.90;99.90;;;;;;5015013;28;20184;-81
2022/07/06 11:24:33;;;;;;;1.90;1.40;;;24.80;99.90;;;;;;5015002;28;20204;-80
2022/07/06 11:26:59;;;;;;;11.32;2.00;;;24.70;99.90;;;;;;5015449;28;20187;-81
2022/07/06 11:29:27;;;;;;;3.80;2.05;;;24.90;99.90;;;;;;5015967;28;20220;-80
2022/07/06 11:31:55;;;;;;;5.25;1.88;;;25.20;99.90;;;;;;5030625;28;20485;-81
2022/07/06 11:34:26;;;;;;;4.65;1.73;;;25.30;99.90;;;;;;5015375;28;20169;-81
2022/07/06 11:37:03;;;;;;;7.05;2.22;;;25.10;99.90;;;;;;5015149;28;20176;-82
2022/07/06 11:39:31;;;;;;;4.05;1.80;;;24.80;99.90;;;;;;5015240;28;20657;-82
2022/07/06 11:41:57;;;;;;;1.85;1.38;;;24.90;99.90;;;;;;5030187;28;20164;-83
2022/07/06 11:44:23;;;;;;;5.95;1.63;;;25.20;99.90;;;;;;5013406;28;20576;-81
2022/07/06 11:46:50;;;;;;;4.47;1.67;;;25.20;99.90;;;;;;5013323;28;20165;-82
2022/07/06 11:49:16;;;;;;;3.28;1.67;;;25.60;99.90;;;;;;5029763;28;20603;-83
2022/07/06 11:51:44;;;;;;;5.18;1.48;;;25.80;99.90;;;;;;5029018;28;20177;-82
2022/07/06 11:54:18;;;;;;;4.05;1.40;;;25.90;99.90;;;;;;5014512;28;20168;-82
2022/07/06 11:56:56;;;;;;;7.97;1.70;;;24.80;99.90;;;;;;5029698;28;20653;-82
2022/07/06 11:59:29;;;;;;;3.63;1.20;;;25.50;99.90;;;;;;5014529;28;20192;-83
2022/07/06 12:02:01;;;;;;;3.47;1.42;;;25.20;99.90;;;;;;5014402;28;20707;-82
2022/07/06 12:04:28;;;;;;;7.70;1.20;;;25.00;99.90;;;;;;5029273;28;20219;-82
2022/07/06 12:06:54;;;;;;;9.07;2.03;;;25.10;99.90;;;;;;5029522;28;20172;-81
2022/07/06 12:09:21;;;;;;;4.00;1.20;;;25.40;99.90;;;;;;5014045;28;20193;-81
2022/07/06 12:11:47;;;;;;;5.40;1.67;;;25.60;99.90;;;;;;5029495;28;20230;-83
2022/07/06 12:14:18;;;;;;;2.88;1.42;;;25.40;99.90;;;;;;5029510;28;20672;-83
2022/07/06 12:16:45;;;;;;;5.80;1.55;;;25.40;99.90;;;;;;5014220;28;20687;-83
2022/07/06 12:19:12;;;;;;;4.75;1.73;;;25.30;99.90;;;;;;5029370;28;20202;-82
2022/07/06 12:21:46;;;;;;;2.65;1.38;;;25.20;99.90;;;;;;5029485;28;20568;-83
2022/07/06 12:24:21;;;;;;;8.65;1.50;;;24.70;99.90;;;;;;5029138;28;20754;-80
2022/07/06 12:26:47;;;;;;;7.88;1.10;;;24.50;99.90;;;;;;5014098;28;20257;-83
2022/07/06 12:29:13;;;;;;;7.63;1.30;;;24.60;99.90;;;;;;5014689;28;20238;-83
2022/07/06 12:31:59;;;;;;;6.18;1.27;;;24.50;99.90;;;;;;5014216;28;20161;-83
2022/07/06 12:34:27;;;;;;;7.03;1.50;;;24.40;99.90;;;;;;5013252;28;20176;-85
2022/07/06 12:36:57;;;;;;;4.20;1.30;;;24.40;99.90;;;;;;5014476;28;20626;-82
2022/07/06 12:39:28;;;;;;;3.35;1.42;;;24.10;99.90;;;;;;5028849;28;20200;-84
2022/07/06 12:42:02;;;;;;;6.72;1.70;;;24.30;99.90;;;;;;5014131;28;20569;-81
2022/07/06 12:44:28;;;;;;;11.27;1.73;;;24.30;99.90;;;;;;5014888;28;20205;-85
2022/07/06 12:47:04;;;;;;;2.40;1.50;;;24.30;99.90;;;;;;5015976;28;20641;-79
2022/07/06 12:49:29;;;;;;;6.22;2.00;;;24.20;99.90;;;;;;5005654;28;20660;-81
2022/07/06 12:51:58;;;;;;;2.38;1.63;;;24.30;99.90;;;;;;5028299;28;20259;-82
2022/07/06 12:54:40;;;;;;;2.25;1.38;;;23.90;99.90;;;;;;5020407;28;20176;-81
2022/07/06 12:57:12;;;;;;;4.70;1.63;;;24.10;99.90;;;;;;5028825;28;20180;-81